sensor_id;sensor_type;location;lat;lon;timestamp;temperature;humidity
78619;DHT22;67941;52.506;5.470;2023-05-10T00:00:49;13.50;78.30
78619;DHT22;67941;52.506;5.470;2023-05-10T00:03:17;13.50;78.30
78619;DHT22;67941;52.506;5.470;2023-05-10T00:05:46;13.50;78.30
78619;DHT22;67941;52.506;5.470;2023-05-10T00:08:15;13.50;78.30
78619;DHT22;67941;52.506;5.470;2023-05-10T00:10:49;13.50;78.30
78619;DHT22;67941;52.506;5.470;2023-05-10T00:13:18;13.50;78.30
78619;DHT22;67941;52.506;5.470;2023-05-10T00:15:47;13.50;78.40
78619;DHT22;67941;52.506;5.470;2023-05-10T00:18:16;13.50;78.40
78619;DHT22;67941;52.506;5.470;2023-05-10T00:20:45;13.50;78.30
78619;DHT22;67941;52.506;5.470;2023-05-10T00:23:14;13.50;78.40
78619;DHT22;67941;52.506;5.470;2023-05-10T00:25:46;13.50;78.30
78619;DHT22;67941;52.506;5.470;2023-05-10T00:28:14;13.50;78.40
78619;DHT22;67941;52.506;5.470;2023-05-10T00:30:43;13.50;78.40
78619;DHT22;67941;52.506;5.470;2023-05-10T00:33:12;13.50;78.40
78619;DHT22;67941;52.506;5.470;2023-05-10T00:35:41;13.50;78.40
78619;DHT22;67941;52.506;5.470;2023-05-10T00:38:10;13.50;78.40
78619;DHT22;67941;52.506;5.470;2023-05-10T00:40:41;13.50;78.40
78619;DHT22;67941;52.506;5.470;2023-05-10T00:43:20;13.50;78.40
78619;DHT22;67941;52.506;5.470;2023-05-10T00:46:01;13.50;78.40
78619;DHT22;67941;52.506;5.470;2023-05-10T00:48:30;13.50;78.40
78619;DHT22;67941;52.506;5.470;2023-05-10T00:50:59;13.40;78.30
78619;DHT22;67941;52.506;5.470;2023-05-10T00:53:31;13.50;78.30
78619;DHT22;67941;52.506;5.470;2023-05-10T00:56:00;13.40;78.30
78619;DHT22;67941;52.506;5.470;2023-05-10T00:58:32;13.40;78.30
78619;DHT22;67941;52.506;5.470;2023-05-10T01:01:01;13.40;78.30
78619;DHT22;67941;52.506;5.470;2023-05-10T01:03:31;13.30;78.20
78619;DHT22;67941;52.506;5.470;2023-05-10T01:05:59;13.30;78.20
78619;DHT22;67941;52.506;5.470;2023-05-10T01:08:29;13.30;78.20
78619;DHT22;67941;52.506;5.470;2023-05-10T01:10:58;13.20;78.30
78619;DHT22;67941;52.506;5.470;2023-05-10T01:13:34;13.20;78.30
78619;DHT22;67941;52.506;5.470;2023-05-10T01:16:05;13.10;78.40
78619;DHT22;67941;52.506;5.470;2023-05-10T01:18:36;13.10;78.40
78619;DHT22;67941;52.506;5.470;2023-05-10T01:21:14;13.10;78.40
78619;DHT22;67941;52.506;5.470;2023-05-10T01:27:14;13.10;78.40
78619;DHT22;67941;52.506;5.470;2023-05-10T01:30:15;13.10;78.50
78619;DHT22;67941;52.506;5.470;2023-05-10T01:32:56;13.10;78.50
78619;DHT22;67941;52.506;5.470;2023-05-10T01:35:34;13.10;78.60
78619;DHT22;67941;52.506;5.470;2023-05-10T01:38:13;13.10;78.50
78619;DHT22;67941;52.506;5.470;2023-05-10T01:40:51;13.10;78.50
78619;DHT22;67941;52.506;5.470;2023-05-10T01:43:26;13.10;78.50
78619;DHT22;67941;52.506;5.470;2023-05-10T01:46:02;13.20;78.50
78619;DHT22;67941;52.506;5.470;2023-05-10T01:48:42;13.20;78.50
78619;DHT22;67941;52.506;5.470;2023-05-10T01:51:26;13.20;78.50
78619;DHT22;67941;52.506;5.470;2023-05-10T01:54:00;13.30;78.50
78619;DHT22;67941;52.506;5.470;2023-05-10T01:56:32;13.30;78.50
78619;DHT22;67941;52.506;5.470;2023-05-10T01:59:06;13.30;78.50
78619;DHT22;67941;52.506;5.470;2023-05-10T02:01:37;13.30;78.50
78619;DHT22;67941;52.506;5.470;2023-05-10T02:04:09;13.30;78.40
78619;DHT22;67941;52.506;5.470;2023-05-10T02:06:41;13.30;78.40
78619;DHT22;67941;52.506;5.470;2023-05-10T02:09:12;13.30;78.30
78619;DHT22;67941;52.506;5.470;2023-05-10T02:11:43;13.30;78.20
78619;DHT22;67941;52.506;5.470;2023-05-10T02:14:13;13.30;78.20
78619;DHT22;67941;52.506;5.470;2023-05-10T02:16:43;13.20;78.20
78619;DHT22;67941;52.506;5.470;2023-05-10T02:19:16;13.10;78.30
78619;DHT22;67941;52.506;5.470;2023-05-10T02:21:45;13.10;78.40
78619;DHT22;67941;52.506;5.470;2023-05-10T02:24:16;13.10;78.40
78619;DHT22;67941;52.506;5.470;2023-05-10T02:26:45;13.10;78.50
78619;DHT22;67941;52.506;5.470;2023-05-10T02:29:16;13.10;78.50
78619;DHT22;67941;52.506;5.470;2023-05-10T02:31:45;13.10;78.50
78619;DHT22;67941;52.506;5.470;2023-05-10T02:34:17;13.10;78.60
78619;DHT22;67941;52.506;5.470;2023-05-10T02:36:48;13.20;78.60
78619;DHT22;67941;52.506;5.470;2023-05-10T02:39:18;13.20;78.60
78619;DHT22;67941;52.506;5.470;2023-05-10T02:41:48;13.30;78.60
78619;DHT22;67941;52.506;5.470;2023-05-10T02:44:19;13.30;78.50
78619;DHT22;67941;52.506;5.470;2023-05-10T02:46:49;13.30;78.60
78619;DHT22;67941;52.506;5.470;2023-05-10T02:49:20;13.30;78.60
78619;DHT22;67941;52.506;5.470;2023-05-10T02:51:53;13.30;78.60
78619;DHT22;67941;52.506;5.470;2023-05-10T02:54:28;13.30;78.60
78619;DHT22;67941;52.506;5.470;2023-05-10T02:56:59;13.40;78.60
78619;DHT22;67941;52.506;5.470;2023-05-10T02:59:28;13.40;78.50
78619;DHT22;67941;52.506;5.470;2023-05-10T03:01:58;13.40;78.60
78619;DHT22;67941;52.506;5.470;2023-05-10T03:04:30;13.40;78.60
78619;DHT22;67941;52.506;5.470;2023-05-10T03:06:59;13.40;78.60
78619;DHT22;67941;52.506;5.470;2023-05-10T03:09:29;13.50;78.60
78619;DHT22;67941;52.506;5.470;2023-05-10T03:12:04;13.40;78.60
78619;DHT22;67941;52.506;5.470;2023-05-10T03:14:45;13.50;78.60
78619;DHT22;67941;52.506;5.470;2023-05-10T03:17:20;13.50;78.60
78619;DHT22;67941;52.506;5.470;2023-05-10T03:19:55;13.50;78.50
78619;DHT22;67941;52.506;5.470;2023-05-10T03:22:29;13.50;78.60
78619;DHT22;67941;52.506;5.470;2023-05-10T03:25:00;13.50;78.60
78619;DHT22;67941;52.506;5.470;2023-05-10T03:27:31;13.40;78.50
78619;DHT22;67941;52.506;5.470;2023-05-10T03:30:02;13.40;78.50
78619;DHT22;67941;52.506;5.470;2023-05-10T03:32:33;13.40;78.50
78619;DHT22;67941;52.506;5.470;2023-05-10T03:35:06;13.30;78.50
78619;DHT22;67941;52.506;5.470;2023-05-10T03:37:36;13.30;78.50
78619;DHT22;67941;52.506;5.470;2023-05-10T03:40:06;13.30;78.50
78619;DHT22;67941;52.506;5.470;2023-05-10T03:42:37;13.30;78.50
78619;DHT22;67941;52.506;5.470;2023-05-10T03:45:08;13.30;78.50
78619;DHT22;67941;52.506;5.470;2023-05-10T03:47:37;13.30;78.50
78619;DHT22;67941;52.506;5.470;2023-05-10T03:50:09;13.30;78.50
78619;DHT22;67941;52.506;5.470;2023-05-10T03:52:38;13.30;78.40
78619;DHT22;67941;52.506;5.470;2023-05-10T03:55:07;13.20;78.50
78619;DHT22;67941;52.506;5.470;2023-05-10T03:57:37;13.20;78.50
78619;DHT22;67941;52.506;5.470;2023-05-10T04:00:08;13.20;78.60
78619;DHT22;67941;52.506;5.470;2023-05-10T04:02:43;13.20;78.50
78619;DHT22;67941;52.506;5.470;2023-05-10T04:05:19;13.20;78.50
78619;DHT22;67941;52.506;5.470;2023-05-10T04:07:48;13.20;78.50
78619;DHT22;67941;52.506;5.470;2023-05-10T04:10:17;13.20;78.60
78619;DHT22;67941;52.506;5.470;2023-05-10T04:12:47;13.20;78.50
78619;DHT22;67941;52.506;5.470;2023-05-10T04:15:16;13.20;78.50
78619;DHT22;67941;52.506;5.470;2023-05-10T04:17:45;13.20;78.50
78619;DHT22;67941;52.506;5.470;2023-05-10T04:20:14;13.10;78.50
78619;DHT22;67941;52.506;5.470;2023-05-10T04:22:45;13.10;78.50
78619;DHT22;67941;52.506;5.470;2023-05-10T04:25:14;13.10;78.50
78619;DHT22;67941;52.506;5.470;2023-05-10T04:27:43;13.10;78.40
78619;DHT22;67941;52.506;5.470;2023-05-10T04:30:12;13.10;78.40
78619;DHT22;67941;52.506;5.470;2023-05-10T04:32:41;13.10;78.40
78619;DHT22;67941;52.506;5.470;2023-05-10T04:35:10;13.10;78.40
78619;DHT22;67941;52.506;5.470;2023-05-10T04:37:40;13.10;78.50
78619;DHT22;67941;52.506;5.470;2023-05-10T04:40:12;13.10;78.50
78619;DHT22;67941;52.506;5.470;2023-05-10T04:42:41;13.10;78.50
78619;DHT22;67941;52.506;5.470;2023-05-10T04:45:10;13.10;78.50
78619;DHT22;67941;52.506;5.470;2023-05-10T04:47:40;13.10;78.50
78619;DHT22;67941;52.506;5.470;2023-05-10T04:50:09;13.10;78.50
78619;DHT22;67941;52.506;5.470;2023-05-10T04:52:38;13.10;78.40
78619;DHT22;67941;52.506;5.470;2023-05-10T04:55:07;13.10;78.50
78619;DHT22;67941;52.506;5.470;2023-05-10T04:57:39;13.10;78.50
78619;DHT22;67941;52.506;5.470;2023-05-10T05:00:09;13.20;78.50
78619;DHT22;67941;52.506;5.470;2023-05-10T05:02:38;13.20;78.40
78619;DHT22;67941;52.506;5.470;2023-05-10T05:05:07;13.20;78.40
78619;DHT22;67941;52.506;5.470;2023-05-10T05:07:36;13.20;78.40
78619;DHT22;67941;52.506;5.470;2023-05-10T05:10:06;13.10;78.50
78619;DHT22;67941;52.506;5.470;2023-05-10T05:12:38;13.10;78.50
78619;DHT22;67941;52.506;5.470;2023-05-10T05:15:08;13.20;78.40
78619;DHT22;67941;52.506;5.470;2023-05-10T05:17:37;13.20;78.50
78619;DHT22;67941;52.506;5.470;2023-05-10T05:20:07;13.10;78.50
78619;DHT22;67941;52.506;5.470;2023-05-10T05:22:36;13.10;78.40
78619;DHT22;67941;52.506;5.470;2023-05-10T05:25:06;13.10;78.50
78619;DHT22;67941;52.506;5.470;2023-05-10T05:27:38;13.10;78.50
78619;DHT22;67941;52.506;5.470;2023-05-10T05:30:08;13.10;78.60
78619;DHT22;67941;52.506;5.470;2023-05-10T05:32:37;13.10;78.60
78619;DHT22;67941;52.506;5.470;2023-05-10T05:35:07;13.10;78.70
78619;DHT22;67941;52.506;5.470;2023-05-10T05:37:36;13.10;78.70
78619;DHT22;67941;52.506;5.470;2023-05-10T05:40:07;13.20;78.80
78619;DHT22;67941;52.506;5.470;2023-05-10T05:42:38;13.30;78.80
78619;DHT22;67941;52.506;5.470;2023-05-10T05:45:08;13.30;78.70
78619;DHT22;67941;52.506;5.470;2023-05-10T05:47:38;13.40;78.70
78619;DHT22;67941;52.506;5.470;2023-05-10T05:50:08;13.50;78.70
78619;DHT22;67941;52.506;5.470;2023-05-10T05:52:37;13.50;78.60
78619;DHT22;67941;52.506;5.470;2023-05-10T05:55:09;13.50;78.50
78619;DHT22;67941;52.506;5.470;2023-05-10T05:57:41;13.50;78.50
78619;DHT22;67941;52.506;5.470;2023-05-10T06:00:10;13.50;78.50
78619;DHT22;67941;52.506;5.470;2023-05-10T06:02:39;13.50;78.60
78619;DHT22;67941;52.506;5.470;2023-05-10T06:05:09;13.50;78.60
78619;DHT22;67941;52.506;5.470;2023-05-10T06:07:38;13.50;78.60
78619;DHT22;67941;52.506;5.470;2023-05-10T06:10:08;13.50;78.60
78619;DHT22;67941;52.506;5.470;2023-05-10T06:12:36;13.50;78.60
78619;DHT22;67941;52.506;5.470;2023-05-10T06:15:09;13.60;78.60
78619;DHT22;67941;52.506;5.470;2023-05-10T06:17:38;13.60;78.70
78619;DHT22;67941;52.506;5.470;2023-05-10T06:20:10;13.70;78.70
78619;DHT22;67941;52.506;5.470;2023-05-10T06:22:39;13.90;78.70
78619;DHT22;67941;52.506;5.470;2023-05-10T06:25:09;13.90;78.60
78619;DHT22;67941;52.506;5.470;2023-05-10T06:27:38;13.90;78.60
78619;DHT22;67941;52.506;5.470;2023-05-10T06:30:10;14.00;78.60
78619;DHT22;67941;52.506;5.470;2023-05-10T06:32:40;14.10;78.40
78619;DHT22;67941;52.506;5.470;2023-05-10T06:35:09;14.10;78.40
78619;DHT22;67941;52.506;5.470;2023-05-10T06:37:38;14.10;78.40
78619;DHT22;67941;52.506;5.470;2023-05-10T06:40:08;14.10;78.40
78619;DHT22;67941;52.506;5.470;2023-05-10T06:42:56;14.10;78.30
78619;DHT22;67941;52.506;5.470;2023-05-10T06:45:27;14.10;78.20
78619;DHT22;67941;52.506;5.470;2023-05-10T06:47:56;14.10;78.20
78619;DHT22;67941;52.506;5.470;2023-05-10T06:50:25;14.10;78.40
78619;DHT22;67941;52.506;5.470;2023-05-10T06:52:54;14.10;78.20
78619;DHT22;67941;52.506;5.470;2023-05-10T06:55:23;14.10;78.10
78619;DHT22;67941;52.506;5.470;2023-05-10T06:57:52;14.00;78.00
78619;DHT22;67941;52.506;5.470;2023-05-10T07:00:21;14.00;78.10
78619;DHT22;67941;52.506;5.470;2023-05-10T07:02:53;13.90;78.00
78619;DHT22;67941;52.506;5.470;2023-05-10T07:05:21;13.90;78.00
78619;DHT22;67941;52.506;5.470;2023-05-10T07:07:50;13.90;78.00
78619;DHT22;67941;52.506;5.470;2023-05-10T07:10:19;13.70;78.00
78619;DHT22;67941;52.506;5.470;2023-05-10T07:12:48;13.70;78.00
78619;DHT22;67941;52.506;5.470;2023-05-10T07:15:17;13.70;78.10
78619;DHT22;67941;52.506;5.470;2023-05-10T07:17:46;13.70;78.20
78619;DHT22;67941;52.506;5.470;2023-05-10T07:20:17;13.70;78.40
78619;DHT22;67941;52.506;5.470;2023-05-10T07:22:46;13.90;78.50
78619;DHT22;67941;52.506;5.470;2023-05-10T07:25:15;14.00;78.50
78619;DHT22;67941;52.506;5.470;2023-05-10T07:27:44;14.10;78.40
78619;DHT22;67941;52.506;5.470;2023-05-10T07:30:14;14.20;78.30
78619;DHT22;67941;52.506;5.470;2023-05-10T07:32:43;14.30;78.20
78619;DHT22;67941;52.506;5.470;2023-05-10T07:35:12;14.40;78.30
78619;DHT22;67941;52.506;5.470;2023-05-10T07:37:44;14.50;78.20
78619;DHT22;67941;52.506;5.470;2023-05-10T07:40:13;14.60;78.20
78619;DHT22;67941;52.506;5.470;2023-05-10T07:42:41;14.70;78.10
78619;DHT22;67941;52.506;5.470;2023-05-10T07:45:10;14.70;78.10
78619;DHT22;67941;52.506;5.470;2023-05-10T07:47:39;14.80;78.20
78619;DHT22;67941;52.506;5.470;2023-05-10T07:50:08;15.00;78.10
78619;DHT22;67941;52.506;5.470;2023-05-10T07:52:37;15.10;78.10
78619;DHT22;67941;52.506;5.470;2023-05-10T07:55:09;15.20;78.10
78619;DHT22;67941;52.506;5.470;2023-05-10T07:57:38;15.40;77.90
78619;DHT22;67941;52.506;5.470;2023-05-10T08:00:08;15.40;77.80
78619;DHT22;67941;52.506;5.470;2023-05-10T08:02:41;15.50;77.70
78619;DHT22;67941;52.506;5.470;2023-05-10T08:05:10;15.60;77.70
78619;DHT22;67941;52.506;5.470;2023-05-10T08:07:39;15.60;77.60
78619;DHT22;67941;52.506;5.470;2023-05-10T08:10:11;15.60;77.60
78619;DHT22;67941;52.506;5.470;2023-05-10T08:12:40;15.80;77.70
78619;DHT22;67941;52.506;5.470;2023-05-10T08:15:10;15.80;77.70
78619;DHT22;67941;52.506;5.470;2023-05-10T08:17:39;16.00;77.80
78619;DHT22;67941;52.506;5.470;2023-05-10T08:20:09;16.20;77.60
78619;DHT22;67941;52.506;5.470;2023-05-10T08:22:38;16.30;77.30
78619;DHT22;67941;52.506;5.470;2023-05-10T08:25:10;16.40;77.10
78619;DHT22;67941;52.506;5.470;2023-05-10T08:27:39;16.40;77.20
78619;DHT22;67941;52.506;5.470;2023-05-10T08:30:09;16.40;77.10
78619;DHT22;67941;52.506;5.470;2023-05-10T08:32:38;16.40;76.90
78619;DHT22;67941;52.506;5.470;2023-05-10T08:35:07;16.50;77.00
78619;DHT22;67941;52.506;5.470;2023-05-10T08:37:36;16.50;77.00
78619;DHT22;67941;52.506;5.470;2023-05-10T08:40:07;16.70;77.00
78619;DHT22;67941;52.506;5.470;2023-05-10T08:42:45;16.80;76.90
78619;DHT22;67941;52.506;5.470;2023-05-10T08:45:18;17.00;76.80
78619;DHT22;67941;52.506;5.470;2023-05-10T08:47:49;17.20;76.60
78619;DHT22;67941;52.506;5.470;2023-05-10T08:50:20;17.20;76.40
78619;DHT22;67941;52.506;5.470;2023-05-10T08:52:53;17.20;76.30
78619;DHT22;67941;52.506;5.470;2023-05-10T08:55:24;17.30;76.20
78619;DHT22;67941;52.506;5.470;2023-05-10T08:57:56;17.40;76.10
78619;DHT22;67941;52.506;5.470;2023-05-10T09:00:25;17.40;75.90
78619;DHT22;67941;52.506;5.470;2023-05-10T09:02:54;17.40;75.70
78619;DHT22;67941;52.506;5.470;2023-05-10T09:05:23;17.40;75.70
78619;DHT22;67941;52.506;5.470;2023-05-10T09:07:52;17.40;75.80
78619;DHT22;67941;52.506;5.470;2023-05-10T09:10:21;17.50;75.70
78619;DHT22;67941;52.506;5.470;2023-05-10T09:12:54;17.50;75.70
78619;DHT22;67941;52.506;5.470;2023-05-10T09:15:24;17.70;75.70
78619;DHT22;67941;52.506;5.470;2023-05-10T09:17:54;17.80;75.50
78619;DHT22;67941;52.506;5.470;2023-05-10T09:20:25;18.00;75.30
78619;DHT22;67941;52.506;5.470;2023-05-10T09:22:54;18.10;75.30
78619;DHT22;67941;52.506;5.470;2023-05-10T09:25:23;18.20;75.20
78619;DHT22;67941;52.506;5.470;2023-05-10T09:27:54;18.20;74.90
78619;DHT22;67941;52.506;5.470;2023-05-10T09:30:25;18.20;74.70
78619;DHT22;67941;52.506;5.470;2023-05-10T09:32:55;18.30;74.60
78619;DHT22;67941;52.506;5.470;2023-05-10T09:35:26;18.30;74.40
78619;DHT22;67941;52.506;5.470;2023-05-10T09:37:56;18.30;74.50
78619;DHT22;67941;52.506;5.470;2023-05-10T09:40:27;18.40;74.50
78619;DHT22;67941;52.506;5.470;2023-05-10T09:43:00;18.50;74.30
78619;DHT22;67941;52.506;5.470;2023-05-10T09:45:31;18.60;74.00
78619;DHT22;67941;52.506;5.470;2023-05-10T09:48:01;18.50;74.00
78619;DHT22;67941;52.506;5.470;2023-05-10T09:50:56;18.60;73.90
78619;DHT22;67941;52.506;5.470;2023-05-10T09:53:26;18.60;73.70
78619;DHT22;67941;52.506;5.470;2023-05-10T09:55:55;18.70;73.70
78619;DHT22;67941;52.506;5.470;2023-05-10T09:58:26;18.90;73.80
78619;DHT22;67941;52.506;5.470;2023-05-10T10:00:55;19.00;73.50
78619;DHT22;67941;52.506;5.470;2023-05-10T10:03:24;19.20;73.40
78619;DHT22;67941;52.506;5.470;2023-05-10T10:05:53;19.30;73.10
78619;DHT22;67941;52.506;5.470;2023-05-10T10:08:22;19.40;72.80
78619;DHT22;67941;52.506;5.470;2023-05-10T10:10:50;19.40;72.80
78619;DHT22;67941;52.506;5.470;2023-05-10T10:13:19;19.40;72.70
78619;DHT22;67941;52.506;5.470;2023-05-10T10:15:52;19.40;72.70
78619;DHT22;67941;52.506;5.470;2023-05-10T10:18:21;19.50;72.60
78619;DHT22;67941;52.506;5.470;2023-05-10T10:20:54;19.60;72.60
78619;DHT22;67941;52.506;5.470;2023-05-10T10:23:24;19.70;72.60
78619;DHT22;67941;52.506;5.470;2023-05-10T10:25:53;19.90;72.30
78619;DHT22;67941;52.506;5.470;2023-05-10T10:28:26;20.00;72.20
78619;DHT22;67941;52.506;5.470;2023-05-10T10:31:15;20.10;72.00
78619;DHT22;67941;52.506;5.470;2023-05-10T10:34:00;20.10;71.80
78619;DHT22;67941;52.506;5.470;2023-05-10T10:36:30;20.30;71.80
78619;DHT22;67941;52.506;5.470;2023-05-10T10:39:01;20.30;71.80
78619;DHT22;67941;52.506;5.470;2023-05-10T10:41:33;20.40;71.70
78619;DHT22;67941;52.506;5.470;2023-05-10T10:47:24;20.60;71.10
78619;DHT22;67941;52.506;5.470;2023-05-10T10:50:06;20.70;71.00
78619;DHT22;67941;52.506;5.470;2023-05-10T10:52:37;20.80;71.00
78619;DHT22;67941;52.506;5.470;2023-05-10T10:55:08;20.80;70.90
78619;DHT22;67941;52.506;5.470;2023-05-10T10:57:46;20.90;70.70
78619;DHT22;67941;52.506;5.470;2023-05-10T11:00:26;20.90;70.70
78619;DHT22;67941;52.506;5.470;2023-05-10T11:03:04;21.00;70.60
78619;DHT22;67941;52.506;5.470;2023-05-10T11:05:37;21.10;70.40
78619;DHT22;67941;52.506;5.470;2023-05-10T11:08:14;21.10;70.30
78619;DHT22;67941;52.506;5.470;2023-05-10T11:10:53;21.30;70.00
78619;DHT22;67941;52.506;5.470;2023-05-10T11:13:29;21.30;69.80
78619;DHT22;67941;52.506;5.470;2023-05-10T11:16:09;21.30;69.60
78619;DHT22;67941;52.506;5.470;2023-05-10T11:18:49;21.10;69.50
78619;DHT22;67941;52.506;5.470;2023-05-10T11:21:20;21.00;69.40
78619;DHT22;67941;52.506;5.470;2023-05-10T11:23:51;20.80;69.40
78619;DHT22;67941;52.506;5.470;2023-05-10T11:26:22;20.70;69.40
78619;DHT22;67941;52.506;5.470;2023-05-10T11:28:53;20.60;69.40
78619;DHT22;67941;52.506;5.470;2023-05-10T11:31:24;20.60;69.30
78619;DHT22;67941;52.506;5.470;2023-05-10T11:33:58;20.60;69.30
78619;DHT22;67941;52.506;5.470;2023-05-10T11:36:28;20.60;69.10
78619;DHT22;67941;52.506;5.470;2023-05-10T11:39:00;20.60;69.00
78619;DHT22;67941;52.506;5.470;2023-05-10T11:41:30;20.50;68.80
78619;DHT22;67941;52.506;5.470;2023-05-10T11:43:59;20.30;68.70
78619;DHT22;67941;52.506;5.470;2023-05-10T11:46:28;20.30;68.60
78619;DHT22;67941;52.506;5.470;2023-05-10T11:49:01;20.10;68.50
78619;DHT22;67941;52.506;5.470;2023-05-10T11:51:33;20.00;68.40
78619;DHT22;67941;52.506;5.470;2023-05-10T11:54:07;19.90;68.40
78619;DHT22;67941;52.506;5.470;2023-05-10T11:56:37;19.70;68.50
78619;DHT22;67941;52.506;5.470;2023-05-10T11:59:06;19.70;68.50
78619;DHT22;67941;52.506;5.470;2023-05-10T12:01:35;19.60;68.50
78619;DHT22;67941;52.506;5.470;2023-05-10T12:04:07;19.60;68.50
78619;DHT22;67941;52.506;5.470;2023-05-10T12:06:39;19.70;68.40
78619;DHT22;67941;52.506;5.470;2023-05-10T12:09:08;19.70;68.40
78619;DHT22;67941;52.506;5.470;2023-05-10T12:11:39;19.90;68.20
78619;DHT22;67941;52.506;5.470;2023-05-10T12:14:08;19.90;68.10
78619;DHT22;67941;52.506;5.470;2023-05-10T12:16:37;19.90;68.20
78619;DHT22;67941;52.506;5.470;2023-05-10T12:19:09;20.00;68.20
78619;DHT22;67941;52.506;5.470;2023-05-10T12:21:37;20.10;67.90
78619;DHT22;67941;52.506;5.470;2023-05-10T12:24:07;20.20;67.80
78619;DHT22;67941;52.506;5.470;2023-05-10T12:26:36;20.30;67.80
78619;DHT22;67941;52.506;5.470;2023-05-10T12:29:15;20.30;67.70
78619;DHT22;67941;52.506;5.470;2023-05-10T12:31:54;20.40;67.60
78619;DHT22;67941;52.506;5.470;2023-05-10T12:34:30;20.50;67.70
78619;DHT22;67941;52.506;5.470;2023-05-10T12:36:59;20.60;67.60
78619;DHT22;67941;52.506;5.470;2023-05-10T12:39:38;20.70;67.50
78619;DHT22;67941;52.506;5.470;2023-05-10T12:42:08;20.80;67.10
78619;DHT22;67941;52.506;5.470;2023-05-10T12:44:38;20.80;67.00
78619;DHT22;67941;52.506;5.470;2023-05-10T12:47:06;20.70;66.90
78619;DHT22;67941;52.506;5.470;2023-05-10T12:49:39;20.70;66.80
78619;DHT22;67941;52.506;5.470;2023-05-10T12:52:07;20.70;66.70
78619;DHT22;67941;52.506;5.470;2023-05-10T12:54:37;20.70;66.70
78619;DHT22;67941;52.506;5.470;2023-05-10T12:57:06;20.70;66.50
78619;DHT22;67941;52.506;5.470;2023-05-10T12:59:34;20.60;66.40
78619;DHT22;67941;52.506;5.470;2023-05-10T13:02:03;20.60;66.50
78619;DHT22;67941;52.506;5.470;2023-05-10T13:04:32;20.50;66.50
78619;DHT22;67941;52.506;5.470;2023-05-10T13:07:05;20.50;66.40
78619;DHT22;67941;52.506;5.470;2023-05-10T13:09:34;20.40;66.40
78619;DHT22;67941;52.506;5.470;2023-05-10T13:12:03;20.30;66.50
78619;DHT22;67941;52.506;5.470;2023-05-10T13:14:32;20.30;66.50
78619;DHT22;67941;52.506;5.470;2023-05-10T13:17:01;20.50;66.60
78619;DHT22;67941;52.506;5.470;2023-05-10T13:19:30;20.60;66.50
78619;DHT22;67941;52.506;5.470;2023-05-10T13:21:59;20.80;66.40
78619;DHT22;67941;52.506;5.470;2023-05-10T13:24:30;20.90;66.10
78619;DHT22;67941;52.506;5.470;2023-05-10T13:26:59;21.00;65.80
78619;DHT22;67941;52.506;5.470;2023-05-10T13:29:28;21.10;65.80
78619;DHT22;67941;52.506;5.470;2023-05-10T13:31:58;21.10;65.60
78619;DHT22;67941;52.506;5.470;2023-05-10T13:34:27;21.30;65.50
78619;DHT22;67941;52.506;5.470;2023-05-10T13:36:56;21.30;65.30
78619;DHT22;67941;52.506;5.470;2023-05-10T13:39:24;21.30;65.10
78619;DHT22;67941;52.506;5.470;2023-05-10T13:41:59;21.10;65.00
78619;DHT22;67941;52.506;5.470;2023-05-10T13:44:28;21.10;65.00
78619;DHT22;67941;52.506;5.470;2023-05-10T13:46:59;21.00;65.20
78619;DHT22;67941;52.506;5.470;2023-05-10T13:49:28;21.00;65.10
78619;DHT22;67941;52.506;5.470;2023-05-10T13:51:57;21.00;65.00
78619;DHT22;67941;52.506;5.470;2023-05-10T13:54:31;20.90;64.80
78619;DHT22;67941;52.506;5.470;2023-05-10T13:57:03;20.90;64.80
78619;DHT22;67941;52.506;5.470;2023-05-10T13:59:32;20.90;64.60
78619;DHT22;67941;52.506;5.470;2023-05-10T14:02:01;20.80;64.60
78619;DHT22;67941;52.506;5.470;2023-05-10T14:04:30;20.80;64.40
78619;DHT22;67941;52.506;5.470;2023-05-10T14:07:01;20.80;64.40
78619;DHT22;67941;52.506;5.470;2023-05-10T14:09:30;20.90;64.20
78619;DHT22;67941;52.506;5.470;2023-05-10T14:11:58;21.00;64.00
78619;DHT22;67941;52.506;5.470;2023-05-10T14:14:30;21.00;63.80
78619;DHT22;67941;52.506;5.470;2023-05-10T14:16:59;21.10;63.50
78619;DHT22;67941;52.506;5.470;2023-05-10T14:19:28;21.10;63.30
78619;DHT22;67941;52.506;5.470;2023-05-10T14:21:58;21.10;63.20
78619;DHT22;67941;52.506;5.470;2023-05-10T14:24:27;21.10;63.20
78619;DHT22;67941;52.506;5.470;2023-05-10T14:26:56;21.00;63.20
78619;DHT22;67941;52.506;5.470;2023-05-10T14:29:30;21.00;63.10
78619;DHT22;67941;52.506;5.470;2023-05-10T14:31:59;20.90;63.00
78619;DHT22;67941;52.506;5.470;2023-05-10T14:34:28;20.80;63.00
78619;DHT22;67941;52.506;5.470;2023-05-10T14:36:57;20.60;62.90
78619;DHT22;67941;52.506;5.470;2023-05-10T14:39:26;20.50;62.90
78619;DHT22;67941;52.506;5.470;2023-05-10T14:41:56;20.30;62.90
78619;DHT22;67941;52.506;5.470;2023-05-10T14:44:24;20.00;63.00
78619;DHT22;67941;52.506;5.470;2023-05-10T14:46:57;20.00;63.20
78619;DHT22;67941;52.506;5.470;2023-05-10T14:49:25;20.00;63.20
78619;DHT22;67941;52.506;5.470;2023-05-10T14:51:55;20.00;63.10
78619;DHT22;67941;52.506;5.470;2023-05-10T14:54:23;19.90;63.10
78619;DHT22;67941;52.506;5.470;2023-05-10T14:56:53;19.90;63.00
78619;DHT22;67941;52.506;5.470;2023-05-10T14:59:21;19.80;63.00
78619;DHT22;67941;52.506;5.470;2023-05-10T15:01:51;19.70;63.00
78619;DHT22;67941;52.506;5.470;2023-05-10T15:04:22;19.80;63.00
78619;DHT22;67941;52.506;5.470;2023-05-10T15:06:51;19.70;62.90
78619;DHT22;67941;52.506;5.470;2023-05-10T15:09:24;19.70;62.90
78619;DHT22;67941;52.506;5.470;2023-05-10T15:11:53;19.70;62.90
78619;DHT22;67941;52.506;5.470;2023-05-10T15:14:22;19.70;62.80
78619;DHT22;67941;52.506;5.470;2023-05-10T15:16:51;19.70;62.70
78619;DHT22;67941;52.506;5.470;2023-05-10T15:19:23;19.60;62.60
78619;DHT22;67941;52.506;5.470;2023-05-10T15:21:52;19.50;62.50
78619;DHT22;67941;52.506;5.470;2023-05-10T15:24:21;19.40;62.70
78619;DHT22;67941;52.506;5.470;2023-05-10T15:26:50;19.30;62.60
78619;DHT22;67941;52.506;5.470;2023-05-10T15:29:19;19.20;62.60
78619;DHT22;67941;52.506;5.470;2023-05-10T15:31:49;19.10;62.60
78619;DHT22;67941;52.506;5.470;2023-05-10T15:34:18;19.10;62.50
78619;DHT22;67941;52.506;5.470;2023-05-10T15:36:50;18.90;62.30
78619;DHT22;67941;52.506;5.470;2023-05-10T15:39:18;18.80;62.50
78619;DHT22;67941;52.506;5.470;2023-05-10T15:41:47;18.60;62.60
78619;DHT22;67941;52.506;5.470;2023-05-10T15:44:16;18.50;62.70
78619;DHT22;67941;52.506;5.470;2023-05-10T15:46:45;18.40;62.90
78619;DHT22;67941;52.506;5.470;2023-05-10T15:49:14;18.30;63.00
78619;DHT22;67941;52.506;5.470;2023-05-10T15:51:43;18.20;63.00
78619;DHT22;67941;52.506;5.470;2023-05-10T15:54:15;18.10;63.20
78619;DHT22;67941;52.506;5.470;2023-05-10T15:56:43;18.00;63.30
78619;DHT22;67941;52.506;5.470;2023-05-10T15:59:12;17.90;63.50